sensor_id;sensor_type;location;lat;lon;timestamp;temperature;humidity
3100;DHT22;1560;52.746;13.474;2023-07-29T00:00:54;18.40;99.90
3100;DHT22;1560;52.746;13.474;2023-07-29T00:05:59;18.40;99.90
3100;DHT22;1560;52.746;13.474;2023-07-29T00:08:28;18.40;99.90
3100;DHT22;1560;52.746;13.474;2023-07-29T00:10:56;18.30;99.90
3100;DHT22;1560;52.746;13.474;2023-07-29T00:13:25;18.30;99.90
3100;DHT22;1560;52.746;13.474;2023-07-29T00:18:32;18.20;99.90
3100;DHT22;1560;52.746;13.474;2023-07-29T00:21:00;18.20;99.90
3100;DHT22;1560;52.746;13.474;2023-07-29T00:23:30;18.20;99.90
3100;DHT22;1560;52.746;13.474;2023-07-29T00:25:58;18.20;99.90
3100;DHT22;1560;52.746;13.474;2023-07-29T00:28:27;18.20;99.90
3100;DHT22;1560;52.746;13.474;2023-07-29T00:33:32;18.10;99.90
3100;DHT22;1560;52.746;13.474;2023-07-29T00:36:00;18.10;99.90
3100;DHT22;1560;52.746;13.474;2023-07-29T00:38:30;18.10;99.90
3100;DHT22;1560;52.746;13.474;2023-07-29T00:43:37;18.10;99.90
3100;DHT22;1560;52.746;13.474;2023-07-29T00:46:06;18.00;99.90
3100;DHT22;1560;52.746;13.474;2023-07-29T00:51:12;18.00;99.90
3100;DHT22;1560;52.746;13.474;2023-07-29T00:53:41;18.00;99.90
3100;DHT22;1560;52.746;13.474;2023-07-29T00:56:09;18.00;99.90
3100;DHT22;1560;52.746;13.474;2023-07-29T00:58:39;18.00;99.90
3100;DHT22;1560;52.746;13.474;2023-07-29T01:01:07;17.90;99.90
3100;DHT22;1560;52.746;13.474;2023-07-29T01:03:36;17.80;99.90
3100;DHT22;1560;52.746;13.474;2023-07-29T01:06:11;17.80;99.90
3100;DHT22;1560;52.746;13.474;2023-07-29T01:08:46;17.80;99.90
3100;DHT22;1560;52.746;13.474;2023-07-29T01:13:53;17.70;99.90
3100;DHT22;1560;52.746;13.474;2023-07-29T01:16:26;17.70;99.90
3100;DHT22;1560;52.746;13.474;2023-07-29T01:21:30;17.70;99.90
3100;DHT22;1560;52.746;13.474;2023-07-29T01:23:59;17.70;99.90
3100;DHT22;1560;52.746;13.474;2023-07-29T01:26:28;17.70;99.90
3100;DHT22;1560;52.746;13.474;2023-07-29T01:28:57;17.60;99.90
3100;DHT22;1560;52.746;13.474;2023-07-29T01:34:06;17.70;99.90
3100;DHT22;1560;52.746;13.474;2023-07-29T01:36:37;17.70;99.90
3100;DHT22;1560;52.746;13.474;2023-07-29T01:39:08;17.70;99.90
3100;DHT22;1560;52.746;13.474;2023-07-29T01:41:38;17.70;99.90
3100;DHT22;1560;52.746;13.474;2023-07-29T01:44:07;17.70;99.90
3100;DHT22;1560;52.746;13.474;2023-07-29T01:46:37;17.70;99.90
3100;DHT22;1560;52.746;13.474;2023-07-29T01:49:06;17.70;99.90
3100;DHT22;1560;52.746;13.474;2023-07-29T01:51:34;17.70;99.90
3100;DHT22;1560;52.746;13.474;2023-07-29T01:54:03;17.70;99.90
3100;DHT22;1560;52.746;13.474;2023-07-29T01:59:09;17.70;99.90
3100;DHT22;1560;52.746;13.474;2023-07-29T02:04:15;17.60;99.90
3100;DHT22;1560;52.746;13.474;2023-07-29T02:06:43;17.60;99.90
3100;DHT22;1560;52.746;13.474;2023-07-29T02:11:49;17.50;99.90
3100;DHT22;1560;52.746;13.474;2023-07-29T02:14:18;17.60;99.90
3100;DHT22;1560;52.746;13.474;2023-07-29T02:16:46;17.40;99.90
3100;DHT22;1560;52.746;13.474;2023-07-29T02:19:15;17.50;99.90
3100;DHT22;1560;52.746;13.474;2023-07-29T02:24:21;17.50;99.90
3100;DHT22;1560;52.746;13.474;2023-07-29T02:26:50;17.50;99.90
3100;DHT22;1560;52.746;13.474;2023-07-29T02:29:18;17.50;99.90
3100;DHT22;1560;52.746;13.474;2023-07-29T02:31:48;17.50;99.90
3100;DHT22;1560;52.746;13.474;2023-07-29T02:34:17;17.50;99.90
3100;DHT22;1560;52.746;13.474;2023-07-29T02:36:46;17.50;99.90
3100;DHT22;1560;52.746;13.474;2023-07-29T02:39:16;17.50;99.90
3100;DHT22;1560;52.746;13.474;2023-07-29T02:41:45;17.50;99.90
3100;DHT22;1560;52.746;13.474;2023-07-29T02:44:13;17.40;99.90
3100;DHT22;1560;52.746;13.474;2023-07-29T02:46:43;17.40;99.90
3100;DHT22;1560;52.746;13.474;2023-07-29T02:49:15;17.40;99.90
3100;DHT22;1560;52.746;13.474;2023-07-29T02:51:43;17.30;99.90
3100;DHT22;1560;52.746;13.474;2023-07-29T02:54:12;17.30;99.90
3100;DHT22;1560;52.746;13.474;2023-07-29T02:59:18;17.20;99.90
3100;DHT22;1560;52.746;13.474;2023-07-29T03:01:47;17.10;99.90
3100;DHT22;1560;52.746;13.474;2023-07-29T03:04:15;17.10;99.90
3100;DHT22;1560;52.746;13.474;2023-07-29T03:06:44;17.10;99.90
3100;DHT22;1560;52.746;13.474;2023-07-29T03:09:14;17.10;99.90
3100;DHT22;1560;52.746;13.474;2023-07-29T03:14:20;17.10;99.90
3100;DHT22;1560;52.746;13.474;2023-07-29T03:19:26;17.30;99.90
3100;DHT22;1560;52.746;13.474;2023-07-29T03:21:55;17.30;99.90
3100;DHT22;1560;52.746;13.474;2023-07-29T03:26:59;17.30;99.90
3100;DHT22;1560;52.746;13.474;2023-07-29T03:29:28;17.30;99.90
3100;DHT22;1560;52.746;13.474;2023-07-29T03:34:33;17.20;99.90
3100;DHT22;1560;52.746;13.474;2023-07-29T03:37:03;17.20;99.90
3100;DHT22;1560;52.746;13.474;2023-07-29T03:39:31;17.20;99.90
3100;DHT22;1560;52.746;13.474;2023-07-29T03:44:38;17.20;99.90
3100;DHT22;1560;52.746;13.474;2023-07-29T03:47:07;17.20;99.90
3100;DHT22;1560;52.746;13.474;2023-07-29T03:49:36;17.20;99.90
3100;DHT22;1560;52.746;13.474;2023-07-29T03:52:06;17.30;99.90
3100;DHT22;1560;52.746;13.474;2023-07-29T03:54:35;17.30;99.90
3100;DHT22;1560;52.746;13.474;2023-07-29T03:59:39;17.30;99.90
3100;DHT22;1560;52.746;13.474;2023-07-29T04:04:48;17.30;99.90
3100;DHT22;1560;52.746;13.474;2023-07-29T04:07:17;17.30;99.90
3100;DHT22;1560;52.746;13.474;2023-07-29T04:09:45;17.30;99.90
3100;DHT22;1560;52.746;13.474;2023-07-29T04:12:14;17.30;99.90
3100;DHT22;1560;52.746;13.474;2023-07-29T04:14:43;17.20;99.90
3100;DHT22;1560;52.746;13.474;2023-07-29T04:19:49;17.20;99.90
3100;DHT22;1560;52.746;13.474;2023-07-29T04:22:17;17.20;99.90
3100;DHT22;1560;52.746;13.474;2023-07-29T04:27:24;17.30;99.90
3100;DHT22;1560;52.746;13.474;2023-07-29T04:29:52;17.30;99.90
3100;DHT22;1560;52.746;13.474;2023-07-29T04:32:21;17.30;99.90
3100;DHT22;1560;52.746;13.474;2023-07-29T04:34:49;17.30;99.90
3100;DHT22;1560;52.746;13.474;2023-07-29T04:39:55;17.40;99.90
3100;DHT22;1560;52.746;13.474;2023-07-29T04:42:24;17.40;99.90
3100;DHT22;1560;52.746;13.474;2023-07-29T04:44:52;17.40;99.90
3100;DHT22;1560;52.746;13.474;2023-07-29T04:47:21;17.40;99.90
3100;DHT22;1560;52.746;13.474;2023-07-29T04:49:50;17.40;99.90
3100;DHT22;1560;52.746;13.474;2023-07-29T04:54:56;17.40;99.90
3100;DHT22;1560;52.746;13.474;2023-07-29T04:57:24;17.40;99.90
3100;DHT22;1560;52.746;13.474;2023-07-29T04:59:53;17.40;99.90
3100;DHT22;1560;52.746;13.474;2023-07-29T05:02:22;17.40;99.90
3100;DHT22;1560;52.746;13.474;2023-07-29T05:04:50;17.40;99.90
3100;DHT22;1560;52.746;13.474;2023-07-29T05:09:55;17.40;99.90
3100;DHT22;1560;52.746;13.474;2023-07-29T05:12:23;17.40;99.90
3100;DHT22;1560;52.746;13.474;2023-07-29T05:14:52;17.50;99.90
3100;DHT22;1560;52.746;13.474;2023-07-29T05:17:21;17.50;99.90
3100;DHT22;1560;52.746;13.474;2023-07-29T05:22:27;17.50;99.90
3100;DHT22;1560;52.746;13.474;2023-07-29T05:24:55;17.50;99.90
3100;DHT22;1560;52.746;13.474;2023-07-29T05:27:24;17.50;99.90
3100;DHT22;1560;52.746;13.474;2023-07-29T05:29:53;17.50;99.90
3100;DHT22;1560;52.746;13.474;2023-07-29T05:32:21;17.60;99.90
3100;DHT22;1560;52.746;13.474;2023-07-29T05:34:50;17.60;99.90
3100;DHT22;1560;52.746;13.474;2023-07-29T05:39:56;17.50;99.90
3100;DHT22;1560;52.746;13.474;2023-07-29T05:42:24;17.50;99.90
3100;DHT22;1560;52.746;13.474;2023-07-29T05:44:53;17.60;99.90
3100;DHT22;1560;52.746;13.474;2023-07-29T05:47:21;17.60;99.90
3100;DHT22;1560;52.746;13.474;2023-07-29T05:49:50;17.60;99.90
3100;DHT22;1560;52.746;13.474;2023-07-29T05:54:56;17.70;99.90
3100;DHT22;1560;52.746;13.474;2023-07-29T05:57:24;17.70;99.90
3100;DHT22;1560;52.746;13.474;2023-07-29T05:59:53;17.70;99.90
3100;DHT22;1560;52.746;13.474;2023-07-29T06:02:22;17.80;99.90
3100;DHT22;1560;52.746;13.474;2023-07-29T06:04:50;17.80;99.90
3100;DHT22;1560;52.746;13.474;2023-07-29T06:09:56;18.00;99.90
3100;DHT22;1560;52.746;13.474;2023-07-29T06:12:25;18.10;99.90
3100;DHT22;1560;52.746;13.474;2023-07-29T06:14:54;18.20;99.90
3100;DHT22;1560;52.746;13.474;2023-07-29T06:17:22;18.20;99.90
3100;DHT22;1560;52.746;13.474;2023-07-29T06:19:51;18.30;99.90
3100;DHT22;1560;52.746;13.474;2023-07-29T06:22:20;18.30;99.90
3100;DHT22;1560;52.746;13.474;2023-07-29T06:24:48;18.40;99.90
3100;DHT22;1560;52.746;13.474;2023-07-29T06:29:54;18.50;99.90
3100;DHT22;1560;52.746;13.474;2023-07-29T06:32:22;18.60;99.90
3100;DHT22;1560;52.746;13.474;2023-07-29T06:34:51;18.60;99.90
3100;DHT22;1560;52.746;13.474;2023-07-29T06:37:22;18.60;99.90
3100;DHT22;1560;52.746;13.474;2023-07-29T06:42:28;18.70;99.90
3100;DHT22;1560;52.746;13.474;2023-07-29T06:44:57;18.80;99.90
3100;DHT22;1560;52.746;13.474;2023-07-29T06:47:25;18.80;99.90
3100;DHT22;1560;52.746;13.474;2023-07-29T06:49:54;18.90;99.90
3100;DHT22;1560;52.746;13.474;2023-07-29T06:52:23;19.00;99.90
3100;DHT22;1560;52.746;13.474;2023-07-29T06:54:52;19.10;99.90
3100;DHT22;1560;52.746;13.474;2023-07-29T06:57:20;19.10;99.90
3100;DHT22;1560;52.746;13.474;2023-07-29T06:59:49;19.20;99.90
3100;DHT22;1560;52.746;13.474;2023-07-29T07:04:55;19.40;99.90
3100;DHT22;1560;52.746;13.474;2023-07-29T07:07:23;19.40;99.90
3100;DHT22;1560;52.746;13.474;2023-07-29T07:09:52;19.50;99.90
3100;DHT22;1560;52.746;13.474;2023-07-29T07:12:21;19.60;99.90
3100;DHT22;1560;52.746;13.474;2023-07-29T07:17:27;20.10;99.90
3100;DHT22;1560;52.746;13.474;2023-07-29T07:22:32;20.20;99.90
3100;DHT22;1560;52.746;13.474;2023-07-29T07:25:01;20.30;99.90
3100;DHT22;1560;52.746;13.474;2023-07-29T07:30:09;20.20;99.90
3100;DHT22;1560;52.746;13.474;2023-07-29T07:32:38;20.20;99.90
3100;DHT22;1560;52.746;13.474;2023-07-29T07:35:08;20.20;99.90
3100;DHT22;1560;52.746;13.474;2023-07-29T07:40:14;20.30;99.90
3100;DHT22;1560;52.746;13.474;2023-07-29T07:42:42;20.30;99.90
3100;DHT22;1560;52.746;13.474;2023-07-29T07:45:11;20.40;99.90
3100;DHT22;1560;52.746;13.474;2023-07-29T07:47:39;20.40;99.90
3100;DHT22;1560;52.746;13.474;2023-07-29T07:52:47;20.40;99.90
3100;DHT22;1560;52.746;13.474;2023-07-29T07:55:16;20.40;99.90
3100;DHT22;1560;52.746;13.474;2023-07-29T07:57:44;20.50;99.90
3100;DHT22;1560;52.746;13.474;2023-07-29T08:00:15;20.60;99.90
3100;DHT22;1560;52.746;13.474;2023-07-29T08:02:45;20.70;99.90
3100;DHT22;1560;52.746;13.474;2023-07-29T08:05:13;20.80;99.90
3100;DHT22;1560;52.746;13.474;2023-07-29T08:07:42;20.80;99.90
3100;DHT22;1560;52.746;13.474;2023-07-29T08:12:48;21.00;99.90
3100;DHT22;1560;52.746;13.474;2023-07-29T08:15:17;21.20;99.90
3100;DHT22;1560;52.746;13.474;2023-07-29T08:17:47;21.30;99.90
3100;DHT22;1560;52.746;13.474;2023-07-29T08:22:52;21.80;99.90
3100;DHT22;1560;52.746;13.474;2023-07-29T08:25:20;21.90;99.90
3100;DHT22;1560;52.746;13.474;2023-07-29T08:27:49;22.20;99.90
3100;DHT22;1560;52.746;13.474;2023-07-29T08:30:18;22.30;99.90
3100;DHT22;1560;52.746;13.474;2023-07-29T08:32:47;22.50;99.90
3100;DHT22;1560;52.746;13.474;2023-07-29T08:35:16;22.70;99.90
3100;DHT22;1560;52.746;13.474;2023-07-29T08:37:44;22.80;99.90
3100;DHT22;1560;52.746;13.474;2023-07-29T08:40:14;22.90;99.90
3100;DHT22;1560;52.746;13.474;2023-07-29T08:42:42;22.90;99.90
3100;DHT22;1560;52.746;13.474;2023-07-29T08:45:13;22.90;99.90
3100;DHT22;1560;52.746;13.474;2023-07-29T08:47:42;22.90;99.90
3100;DHT22;1560;52.746;13.474;2023-07-29T08:52:49;22.60;99.90
3100;DHT22;1560;52.746;13.474;2023-07-29T08:55:19;22.50;99.90
3100;DHT22;1560;52.746;13.474;2023-07-29T08:57:48;22.50;99.90
3100;DHT22;1560;52.746;13.474;2023-07-29T09:00:17;22.40;99.90
3100;DHT22;1560;52.746;13.474;2023-07-29T09:02:46;22.50;99.90
3100;DHT22;1560;52.746;13.474;2023-07-29T09:05:14;22.50;99.90
3100;DHT22;1560;52.746;13.474;2023-07-29T09:07:45;22.50;99.90
3100;DHT22;1560;52.746;13.474;2023-07-29T09:10:14;22.50;99.90
3100;DHT22;1560;52.746;13.474;2023-07-29T09:15:30;22.60;99.90
3100;DHT22;1560;52.746;13.474;2023-07-29T09:18:00;22.60;99.90
3100;DHT22;1560;52.746;13.474;2023-07-29T09:20:29;22.70;99.90
3100;DHT22;1560;52.746;13.474;2023-07-29T09:25:35;22.90;99.90
3100;DHT22;1560;52.746;13.474;2023-07-29T09:28:09;22.90;99.90
3100;DHT22;1560;52.746;13.474;2023-07-29T09:33:18;22.90;99.90
3100;DHT22;1560;52.746;13.474;2023-07-29T09:35:47;22.90;99.90
3100;DHT22;1560;52.746;13.474;2023-07-29T09:38:16;23.00;99.90
3100;DHT22;1560;52.746;13.474;2023-07-29T09:43:25;23.00;99.90
3100;DHT22;1560;52.746;13.474;2023-07-29T09:45:54;23.10;99.90
3100;DHT22;1560;52.746;13.474;2023-07-29T09:48:23;23.10;99.90
3100;DHT22;1560;52.746;13.474;2023-07-29T09:50:52;23.10;99.90
3100;DHT22;1560;52.746;13.474;2023-07-29T09:53:21;23.10;99.90
3100;DHT22;1560;52.746;13.474;2023-07-29T09:55:50;23.00;99.90
3100;DHT22;1560;52.746;13.474;2023-07-29T09:58:26;22.90;99.90
3100;DHT22;1560;52.746;13.474;2023-07-29T10:00:52;22.90;99.90
3100;DHT22;1560;52.746;13.474;2023-07-29T10:06:01;22.90;99.90
3100;DHT22;1560;52.746;13.474;2023-07-29T10:08:31;22.90;99.90
3100;DHT22;1560;52.746;13.474;2023-07-29T10:11:02;22.90;99.90
3100;DHT22;1560;52.746;13.474;2023-07-29T10:16:07;22.90;99.90
3100;DHT22;1560;52.746;13.474;2023-07-29T10:18:37;22.90;99.90
3100;DHT22;1560;52.746;13.474;2023-07-29T10:21:07;22.90;99.90
3100;DHT22;1560;52.746;13.474;2023-07-29T10:26:16;22.90;99.90
3100;DHT22;1560;52.746;13.474;2023-07-29T10:31:23;23.00;99.90
3100;DHT22;1560;52.746;13.474;2023-07-29T10:36:29;23.10;99.90
3100;DHT22;1560;52.746;13.474;2023-07-29T10:41:57;23.00;99.90
3100;DHT22;1560;52.746;13.474;2023-07-29T10:44:47;22.90;99.90
3100;DHT22;1560;52.746;13.474;2023-07-29T10:47:18;22.90;99.90
3100;DHT22;1560;52.746;13.474;2023-07-29T10:49:48;22.80;99.90
3100;DHT22;1560;52.746;13.474;2023-07-29T10:55:23;22.60;99.90
3100;DHT22;1560;52.746;13.474;2023-07-29T10:57:46;22.60;99.90
3100;DHT22;1560;52.746;13.474;2023-07-29T11:00:18;22.60;99.90
3100;DHT22;1560;52.746;13.474;2023-07-29T11:05:25;22.40;99.90
3100;DHT22;1560;52.746;13.474;2023-07-29T11:13:11;22.00;99.90
3100;DHT22;1560;52.746;13.474;2023-07-29T11:15:40;21.90;99.90
3100;DHT22;1560;52.746;13.474;2023-07-29T11:18:10;21.80;99.90
3100;DHT22;1560;52.746;13.474;2023-07-29T11:20:42;21.70;99.90
3100;DHT22;1560;52.746;13.474;2023-07-29T11:23:12;21.60;99.90
3100;DHT22;1560;52.746;13.474;2023-07-29T11:25:41;21.50;99.90
3100;DHT22;1560;52.746;13.474;2023-07-29T11:28:10;21.50;99.90
3100;DHT22;1560;52.746;13.474;2023-07-29T11:33:18;21.60;99.90
3100;DHT22;1560;52.746;13.474;2023-07-29T11:35:48;21.50;99.90
3100;DHT22;1560;52.746;13.474;2023-07-29T11:38:18;21.40;99.90
3100;DHT22;1560;52.746;13.474;2023-07-29T11:43:36;21.40;99.90
3100;DHT22;1560;52.746;13.474;2023-07-29T11:46:04;21.30;99.90
3100;DHT22;1560;52.746;13.474;2023-07-29T11:48:34;21.30;99.90
3100;DHT22;1560;52.746;13.474;2023-07-29T11:51:03;21.20;99.90
3100;DHT22;1560;52.746;13.474;2023-07-29T11:53:31;21.20;99.90
3100;DHT22;1560;52.746;13.474;2023-07-29T11:56:00;21.10;99.90
3100;DHT22;1560;52.746;13.474;2023-07-29T11:58:29;20.80;99.90
3100;DHT22;1560;52.746;13.474;2023-07-29T12:00:58;20.70;99.90
3100;DHT22;1560;52.746;13.474;2023-07-29T12:03:28;20.70;99.90
3100;DHT22;1560;52.746;13.474;2023-07-29T12:08:34;20.60;99.90
3100;DHT22;1560;52.746;13.474;2023-07-29T12:11:03;20.70;99.90
3100;DHT22;1560;52.746;13.474;2023-07-29T12:13:32;20.90;99.90
3100;DHT22;1560;52.746;13.474;2023-07-29T12:16:03;21.00;99.90
3100;DHT22;1560;52.746;13.474;2023-07-29T12:18:32;21.10;99.90
3100;DHT22;1560;52.746;13.474;2023-07-29T12:23:38;21.10;99.90
3100;DHT22;1560;52.746;13.474;2023-07-29T12:26:07;21.10;99.90
3100;DHT22;1560;52.746;13.474;2023-07-29T12:28:35;21.20;99.90
3100;DHT22;1560;52.746;13.474;2023-07-29T12:33:44;21.30;99.90
3100;DHT22;1560;52.746;13.474;2023-07-29T12:36:13;21.30;99.90
3100;DHT22;1560;52.746;13.474;2023-07-29T12:38:44;21.30;99.90
3100;DHT22;1560;52.746;13.474;2023-07-29T12:41:13;21.30;99.90
3100;DHT22;1560;52.746;13.474;2023-07-29T12:43:42;21.40;99.90
3100;DHT22;1560;52.746;13.474;2023-07-29T12:46:10;21.40;99.90
3100;DHT22;1560;52.746;13.474;2023-07-29T12:51:16;21.30;99.90
3100;DHT22;1560;52.746;13.474;2023-07-29T12:53:45;21.30;99.90
3100;DHT22;1560;52.746;13.474;2023-07-29T12:56:13;21.30;99.90
3100;DHT22;1560;52.746;13.474;2023-07-29T13:01:21;21.20;99.90
3100;DHT22;1560;52.746;13.474;2023-07-29T13:03:49;21.20;99.90
3100;DHT22;1560;52.746;13.474;2023-07-29T13:06:18;21.30;99.90
3100;DHT22;1560;52.746;13.474;2023-07-29T13:08:47;21.40;99.90
3100;DHT22;1560;52.746;13.474;2023-07-29T13:11:16;21.40;99.90
3100;DHT22;1560;52.746;13.474;2023-07-29T13:13:45;21.50;99.90
3100;DHT22;1560;52.746;13.474;2023-07-29T13:18:51;21.80;99.90
3100;DHT22;1560;52.746;13.474;2023-07-29T13:21:19;21.90;99.90
3100;DHT22;1560;52.746;13.474;2023-07-29T13:23:48;22.10;99.90
3100;DHT22;1560;52.746;13.474;2023-07-29T13:28:52;22.60;99.90
3100;DHT22;1560;52.746;13.474;2023-07-29T13:31:23;22.70;99.90
3100;DHT22;1560;52.746;13.474;2023-07-29T13:36:29;22.50;99.90
3100;DHT22;1560;52.746;13.474;2023-07-29T13:38:57;22.40;99.90
3100;DHT22;1560;52.746;13.474;2023-07-29T13:41:26;22.30;99.90
3100;DHT22;1560;52.746;13.474;2023-07-29T13:43:55;22.30;99.90
3100;DHT22;1560;52.746;13.474;2023-07-29T13:46:23;22.30;99.90
3100;DHT22;1560;52.746;13.474;2023-07-29T13:48:52;22.40;99.90
3100;DHT22;1560;52.746;13.474;2023-07-29T13:53:57;22.50;99.90
3100;DHT22;1560;52.746;13.474;2023-07-29T13:56:26;22.60;99.90
3100;DHT22;1560;52.746;13.474;2023-07-29T13:58:55;22.60;99.90
3100;DHT22;1560;52.746;13.474;2023-07-29T14:01:23;22.70;99.90
3100;DHT22;1560;52.746;13.474;2023-07-29T14:03:52;22.80;99.90
3100;DHT22;1560;52.746;13.474;2023-07-29T14:06:20;22.80;99.90
3100;DHT22;1560;52.746;13.474;2023-07-29T14:08:49;22.70;99.90
3100;DHT22;1560;52.746;13.474;2023-07-29T14:11:17;22.60;99.90
3100;DHT22;1560;52.746;13.474;2023-07-29T14:13:46;22.60;99.90
3100;DHT22;1560;52.746;13.474;2023-07-29T14:16:15;22.50;99.90
3100;DHT22;1560;52.746;13.474;2023-07-29T14:18:43;22.60;99.90
3100;DHT22;1560;52.746;13.474;2023-07-29T14:23:49;22.70;99.90
3100;DHT22;1560;52.746;13.474;2023-07-29T14:26:17;22.60;99.90
3100;DHT22;1560;52.746;13.474;2023-07-29T14:28:46;22.60;99.90
3100;DHT22;1560;52.746;13.474;2023-07-29T14:31:15;22.60;99.90
3100;DHT22;1560;52.746;13.474;2023-07-29T14:36:21;22.50;99.90
3100;DHT22;1560;52.746;13.474;2023-07-29T14:38:50;22.60;99.90
3100;DHT22;1560;52.746;13.474;2023-07-29T14:41:18;22.50;99.90
3100;DHT22;1560;52.746;13.474;2023-07-29T14:43:47;22.50;99.90
3100;DHT22;1560;52.746;13.474;2023-07-29T14:48:52;22.50;99.90
3100;DHT22;1560;52.746;13.474;2023-07-29T14:51:20;22.60;99.90
3100;DHT22;1560;52.746;13.474;2023-07-29T14:53:50;22.70;99.90
3100;DHT22;1560;52.746;13.474;2023-07-29T14:56:19;22.80;99.90
3100;DHT22;1560;52.746;13.474;2023-07-29T14:58:47;22.70;99.90
3100;DHT22;1560;52.746;13.474;2023-07-29T15:01:17;22.50;99.90
3100;DHT22;1560;52.746;13.474;2023-07-29T15:03:46;22.60;99.90
3100;DHT22;1560;52.746;13.474;2023-07-29T15:06:14;22.60;99.90
3100;DHT22;1560;52.746;13.474;2023-07-29T15:08:43;22.50;99.90
3100;DHT22;1560;52.746;13.474;2023-07-29T15:13:49;22.50;99.90
3100;DHT22;1560;52.746;13.474;2023-07-29T15:16:18;22.50;99.90
3100;DHT22;1560;52.746;13.474;2023-07-29T15:21:23;22.50;99.90
3100;DHT22;1560;52.746;13.474;2023-07-29T15:23:52;22.40;99.90
3100;DHT22;1560;52.746;13.474;2023-07-29T15:26:20;22.30;99.90
3100;DHT22;1560;52.746;13.474;2023-07-29T15:31:26;22.10;99.90
3100;DHT22;1560;52.746;13.474;2023-07-29T15:33:55;22.10;99.90
3100;DHT22;1560;52.746;13.474;2023-07-29T15:36:23;22.10;99.90
3100;DHT22;1560;52.746;13.474;2023-07-29T15:41:31;22.10;99.90
3100;DHT22;1560;52.746;13.474;2023-07-29T15:44:00;22.10;99.90
3100;DHT22;1560;52.746;13.474;2023-07-29T15:46:28;22.00;99.90
3100;DHT22;1560;52.746;13.474;2023-07-29T15:48:57;22.00;99.90
3100;DHT22;1560;52.746;13.474;2023-07-29T15:51:27;22.00;99.90
3100;DHT22;1560;52.746;13.474;2023-07-29T15:56:32;22.10;99.90
3100;DHT22;1560;52.746;13.474;2023-07-29T15:59:03;22.00;99.90
3100;DHT22;1560;52.746;13.474;2023-07-29T16:01:31;22.00;99.90
3100;DHT22;1560;52.746;13.474;2023-07-29T16:04:00;22.10;99.90
3100;DHT22;1560;52.746;13.474;2023-07-29T16:06:29;22.10;99.90
3100;DHT22;1560;52.746;13.474;2023-07-29T16:11:35;21.90;99.90
3100;DHT22;1560;52.746;13.474;2023-07-29T16:14:03;22.00;99.90
3100;DHT22;1560;52.746;13.474;2023-07-29T16:16:32;22.00;99.90
3100;DHT22;1560;52.746;13.474;2023-07-29T16:21:38;22.10;99.90
3100;DHT22;1560;52.746;13.474;2023-07-29T16:24:06;22.10;99.90
3100;DHT22;1560;52.746;13.474;2023-07-29T16:26:35;22.20;99.90
3100;DHT22;1560;52.746;13.474;2023-07-29T16:31:41;22.30;99.90
3100;DHT22;1560;52.746;13.474;2023-07-29T16:34:10;22.20;99.90
3100;DHT22;1560;52.746;13.474;2023-07-29T16:36:38;22.10;99.90
3100;DHT22;1560;52.746;13.474;2023-07-29T16:39:07;22.00;99.90
3100;DHT22;1560;52.746;13.474;2023-07-29T16:41:35;21.90;99.90
3100;DHT22;1560;52.746;13.474;2023-07-29T16:46:41;22.00;99.90
3100;DHT22;1560;52.746;13.474;2023-07-29T16:49:10;21.90;99.90
3100;DHT22;1560;52.746;13.474;2023-07-29T16:54:16;21.80;99.90
3100;DHT22;1560;52.746;13.474;2023-07-29T16:56:46;21.80;99.90
3100;DHT22;1560;52.746;13.474;2023-07-29T17:01:52;21.70;99.90
3100;DHT22;1560;52.746;13.474;2023-07-29T17:04:21;21.70;99.90
3100;DHT22;1560;52.746;13.474;2023-07-29T17:06:49;21.70;99.90
3100;DHT22;1560;52.746;13.474;2023-07-29T17:11:55;21.70;99.90
3100;DHT22;1560;52.746;13.474;2023-07-29T17:14:25;21.70;99.90
3100;DHT22;1560;52.746;13.474;2023-07-29T17:16:55;21.70;99.90
3100;DHT22;1560;52.746;13.474;2023-07-29T17:19:24;21.80;99.90
3100;DHT22;1560;52.746;13.474;2023-07-29T17:21:52;21.80;99.90
3100;DHT22;1560;52.746;13.474;2023-07-29T17:24:21;21.80;99.90
3100;DHT22;1560;52.746;13.474;2023-07-29T17:29:27;21.80;99.90
3100;DHT22;1560;52.746;13.474;2023-07-29T17:34:31;21.90;99.90
3100;DHT22;1560;52.746;13.474;2023-07-29T17:37:00;21.90;99.90
3100;DHT22;1560;52.746;13.474;2023-07-29T17:39:29;21.80;99.90
3100;DHT22;1560;52.746;13.474;2023-07-29T17:41:57;21.90;99.90
3100;DHT22;1560;52.746;13.474;2023-07-29T17:44:26;21.80;99.90
3100;DHT22;1560;52.746;13.474;2023-07-29T17:49:52;21.70;99.90
3100;DHT22;1560;52.746;13.474;2023-07-29T17:52:21;21.60;99.90
3100;DHT22;1560;52.746;13.474;2023-07-29T17:54:50;21.60;99.90
3100;DHT22;1560;52.746;13.474;2023-07-29T17:57:18;21.50;99.90
3100;DHT22;1560;52.746;13.474;2023-07-29T17:59:47;21.60;99.90
3100;DHT22;1560;52.746;13.474;2023-07-29T18:02:15;21.50;99.90
3100;DHT22;1560;52.746;13.474;2023-07-29T18:04:44;21.60;99.90
3100;DHT22;1560;52.746;13.474;2023-07-29T18:07:14;21.60;99.90
3100;DHT22;1560;52.746;13.474;2023-07-29T18:09:42;21.50;99.90
3100;DHT22;1560;52.746;13.474;2023-07-29T18:14:49;21.40;99.90
3100;DHT22;1560;52.746;13.474;2023-07-29T18:17:17;21.40;99.90
3100;DHT22;1560;52.746;13.474;2023-07-29T18:19:46;21.20;99.90
3100;DHT22;1560;52.746;13.474;2023-07-29T18:24:52;21.10;99.90
3100;DHT22;1560;52.746;13.474;2023-07-29T18:27:21;21.20;99.90
3100;DHT22;1560;52.746;13.474;2023-07-29T18:32:26;21.10;99.90
3100;DHT22;1560;52.746;13.474;2023-07-29T18:34:55;21.10;99.90
3100;DHT22;1560;52.746;13.474;2023-07-29T18:37:23;21.10;99.90
3100;DHT22;1560;52.746;13.474;2023-07-29T18:39:52;21.10;99.90
3100;DHT22;1560;52.746;13.474;2023-07-29T18:42:21;21.00;99.90
3100;DHT22;1560;52.746;13.474;2023-07-29T18:44:49;21.00;99.90
3100;DHT22;1560;52.746;13.474;2023-07-29T18:47:18;20.90;99.90
3100;DHT22;1560;52.746;13.474;2023-07-29T18:49:46;20.80;99.90
3100;DHT22;1560;52.746;13.474;2023-07-29T18:54:52;20.70;99.90
3100;DHT22;1560;52.746;13.474;2023-07-29T18:57:22;20.70;99.90
3100;DHT22;1560;52.746;13.474;2023-07-29T18:59:51;20.70;99.90
3100;DHT22;1560;52.746;13.474;2023-07-29T19:04:57;20.60;99.90
3100;DHT22;1560;52.746;13.474;2023-07-29T19:07:26;20.60;99.90
3100;DHT22;1560;52.746;13.474;2023-07-29T19:09:54;20.50;99.90
3100;DHT22;1560;52.746;13.474;2023-07-29T19:12:24;20.40;99.90
3100;DHT22;1560;52.746;13.474;2023-07-29T19:14:53;20.40;99.90
3100;DHT22;1560;52.746;13.474;2023-07-29T19:19:58;20.40;99.90
3100;DHT22;1560;52.746;13.474;2023-07-29T19:22:27;20.30;99.90
3100;DHT22;1560;52.746;13.474;2023-07-29T19:24:55;20.30;99.90
3100;DHT22;1560;52.746;13.474;2023-07-29T19:27:24;20.20;99.90
3100;DHT22;1560;52.746;13.474;2023-07-29T19:29:52;20.20;99.90
3100;DHT22;1560;52.746;13.474;2023-07-29T19:32:21;20.10;99.90
3100;DHT22;1560;52.746;13.474;2023-07-29T19:34:53;20.20;99.90
3100;DHT22;1560;52.746;13.474;2023-07-29T19:37:23;20.10;99.90
3100;DHT22;1560;52.746;13.474;2023-07-29T19:39:52;20.10;99.90
3100;DHT22;1560;52.746;13.474;2023-07-29T19:44:57;20.00;99.90
3100;DHT22;1560;52.746;13.474;2023-07-29T19:47:25;19.90;99.90
3100;DHT22;1560;52.746;13.474;2023-07-29T19:49:54;19.90;99.90
3100;DHT22;1560;52.746;13.474;2023-07-29T19:52:23;19.80;99.90